Terminal Aerodrome Forecast
Issued by NWS Charleston, WV

Home | Current Version | Previous Version | Text Only | Print | Product List | Glossary On
Versions: 1 2 3 4 5 6 7 8 9 10 11 12 13 14 15 16 17 18 19 20 21 22 23
000
FTUS41 KRLX 172131 AAA
TAFCRW
TAF AMD
KCRW 172131Z 1722/1818 10004KT P6SM FEW250
     FM180800 17003KT P6SM OVC150
     FM181400 20007KT P6SM OVC050
     FM181600 20008G15KT P6SM OVC060=

USA.gov is the U.S. government's official web portal to all federal, state and local government web resources and services.